INFORMACIÓN METAR y TAF
METAR FOR GCLP
ADDS - METARS form results

(0357 UTC 23 January 2019)
Data provider http://aviationweather.gov/metar/data/
 
METAR text: GCLP 230330Z 03018KT 9999 FEW035 BKN045 17/10 Q1025 NOSIG
Conditions at: GCLP (LAS PALMAS/GANDO, ES) observed 0330 UTC 23 January 2019
Temperature: 17.0°C (63°F)
Dewpoint: 10.0°C (50°F) [RH = 63%]
Pressure (altimeter): 30.27 inches Hg (1025.0 mb)
Winds: from the NNE (30 degrees) at 21 MPH (18 knots; 9.3 m/s)
Visibility: 6 or more miles (10+ km)
Ceiling: 4500 feet AGL
Clouds: few clouds at 3500 feet AGL
broken clouds at 4500 feet AGL
Weather: no significant weather observed at this time

METAR text: GCLP 230300Z 02012KT 9999 BKN045 17/10 Q1025 NOSIG
Conditions at: GCLP (LAS PALMAS/GANDO, ES) observed 0300 UTC 23 January 2019
Temperature: 17.0°C (63°F)
Dewpoint: 10.0°C (50°F) [RH = 63%]
Pressure (altimeter): 30.27 inches Hg (1025.0 mb)
Winds: from the NNE (20 degrees) at 14 MPH (12 knots; 6.2 m/s)
Visibility: 6 or more miles (10+ km)
Ceiling: 4500 feet AGL
Clouds: broken clouds at 4500 feet AGL
Weather: no significant weather observed at this time

Forecast for: GCLP (LAS PALMAS/GANDO, ES)
Text: TAF GCLP 230200Z 2303/2403 02019KT 9999 SCT035 TX20/2314Z TN15/2306Z
Forecast period: 0300 UTC 23 January 2019 to 0300 UTC 24 January 2019
Forecast type: FROM: standard forecast or significant change
Winds: from the NNE (20 degrees) at 22 MPH (19 knots; 9.8 m/s)
Visibility: 6 or more miles 10+ km)
Ceiling: at least 12,000 feet AGL
Clouds: scattered clouds at 3500 feet AGL
Weather: no significant weather forecast for this period
Text: PROB30
Forecast period: 1500 to 2100 UTC 23 January 2019
Forecast type: TEMPORARY: The following changes expected for less than half the time period
Visibility: missing
Ceiling: unknown
Clouds: missing
Weather: DZ  (moderate drizzle)

 MAPA DE AEROPUERTO

 INFORMACIÓN DE PISTA
Pista 03R Longitud 10171 ft Ancho 148 ft
Elevación 69 ft Umbral desplazado 0 ft Rumbo de pista 22
Pista 21L Longitud 10171 ft Ancho 148 ft
Elevación 27 ft Umbral desplazado 0 ft Rumbo de pista 202
Pista 03L Longitud 10171 ft Ancho 148 ft
Elevación 78 ft Umbral desplazado 0 ft Rumbo de pista 22
Pista 21R Longitud 10171 ft Ancho 148 ft
Elevación 33 ft Umbral desplazado 0 ft Rumbo de pista 202

 FRECUANCIAS DEL AEROPUERTO
Tipo APP Nombre APP Frecuencia 120.9 MHZ
Tipo ATIS Nombre ATIS Frecuencia 118.6 MHZ
Tipo GND Nombre GND Frecuencia 121.7 MHZ
Tipo TWR Nombre TWR Frecuencia 118.3 MHZ

 RADIO AYUDAS DEL AEROPUERTO
Tipo VOR-DME Nombre Gran Canaria Frecuencia 112900 KHZ
Tipo VOR-DME Nombre Gran Canaria Frecuencia 115000 KHZ
Tipo TACAN Nombre Gran Canaria Frecuencia 115600 KHZ
Tipo NDB Nombre Gran Canaria Frecuencia 365 KHZ



              


PayPal

©2019 Oasis Virtual Airlines
Simulando desde el 2013

Oasis Líneas Aéreas Virtuales no está relacionada con ninguna compañía real.
Se trata de un entorno virtual de simulación aérea, sin ánimo de lucro.


Visitas: 33607

VAM v2.6.2 [MOD.]